Time;durP1;ratioP1;P1;durP2;ratioP2;P2;SDS_P1;SDS_P2;PMS_P1;PMS_P2;Temp;Humidity;BMP_temperature;BMP_pressure;BME280_temperature;BME280_humidity;BME280_pressure;Samples;Min_cycle;Max_cycle;Signal;HPM_P1;HPM_P2
2022/03/27 00:02:18;;;;;;;12.03;9.15;;;;;;;13.92;32.29;101586.70;1682970;85;21042;-65
2022/03/27 00:04:45;;;;;;;12.78;8.88;;;;;;;13.93;33.14;101587.10;1681417;85;21530;-64
2022/03/27 00:07:12;;;;;;;11.63;8.75;;;;;;;13.94;33.56;101582.74;1681245;85;21081;-64
2022/03/27 00:09:39;;;;;;;12.47;8.98;;;;;;;13.93;33.54;101580.56;1678279;85;21053;-64
2022/03/27 00:12:09;;;;;;;10.82;8.85;;;;;;;13.94;33.68;101577.06;1682648;85;21018;-64
2022/03/27 00:14:36;;;;;;;14.20;8.53;;;;;;;13.95;33.70;101576.16;1684215;85;21046;-65
2022/03/27 00:17:04;;;;;;;9.95;8.70;;;;;;;13.96;33.68;101583.13;1680429;85;21049;-64
2022/03/27 00:19:31;;;;;;;10.60;8.90;;;;;;;13.96;33.69;101575.28;1672460;85;21034;-65
2022/03/27 00:21:58;;;;;;;12.25;9.00;;;;;;;13.97;33.78;101575.70;1679265;85;21534;-65
2022/03/27 00:24:25;;;;;;;11.25;8.58;;;;;;;13.98;33.72;101573.48;1678127;85;21042;-64
2022/03/27 00:26:52;;;;;;;16.97;9.83;;;;;;;13.99;33.67;101568.68;1681910;85;21517;-65
2022/03/27 00:29:22;;;;;;;15.43;9.85;;;;;;;13.99;33.55;101571.30;1681012;85;21002;-64
2022/03/27 00:31:49;;;;;;;12.00;8.93;;;;;;;14.00;33.47;101567.77;1679927;85;21112;-65
2022/03/27 00:34:18;;;;;;;12.37;9.45;;;;;;;14.01;33.49;101568.20;1682860;85;21097;-64
2022/03/27 00:36:48;;;;;;;12.13;9.25;;;;;;;14.02;33.42;101562.05;1709428;83;22400;-64
2022/03/27 00:39:15;;;;;;;11.57;9.23;;;;;;;14.04;33.36;101565.49;1720258;83;21063;-65
2022/03/27 00:41:43;;;;;;;12.75;8.70;;;;;;;14.05;33.21;101561.12;1720416;83;21008;-65
2022/03/27 00:44:10;;;;;;;11.93;8.18;;;;;;;14.07;33.24;101561.95;1719207;83;21075;-64
2022/03/27 00:46:38;;;;;;;14.05;9.20;;;;;;;14.08;33.16;101565.83;1717231;83;21039;-64
2022/03/27 00:49:05;;;;;;;14.13;9.00;;;;;;;14.09;33.01;101566.27;1717125;83;21047;-65
2022/03/27 00:51:33;;;;;;;12.00;8.73;;;;;;;14.11;32.97;101559.23;1717435;83;21051;-65
2022/03/27 00:54:00;;;;;;;12.90;9.68;;;;;;;14.12;32.84;101558.32;1717334;83;21046;-65
2022/03/27 00:56:27;;;;;;;12.78;9.45;;;;;;;14.15;32.78;101559.57;1718618;83;21546;-64
2022/03/27 00:58:54;;;;;;;11.57;8.70;;;;;;;14.20;32.68;101556.38;1720556;83;21039;-65
2022/03/27 01:01:35;;;;;;;12.68;9.08;;;;;;;14.22;32.66;101559.82;1720156;83;21070;-64
2022/03/27 01:04:04;;;;;;;11.47;8.73;;;;;;;14.24;32.59;101555.41;1652052;86;21081;-64
2022/03/27 01:06:38;;;;;;;12.70;9.15;;;;;;;14.25;32.55;101554.53;1638899;86;21106;-64
2022/03/27 01:11:54;;;;;;;10.98;8.70;;;;;;;14.26;32.54;101564.08;1651759;86;21070;-65
2022/03/27 01:14:33;;;;;;;15.50;9.00;;;;;;;14.27;32.38;101560.58;1654049;86;21117;-65
2022/03/27 01:19:43;;;;;;;12.13;9.03;;;;;;;14.32;32.33;101565.28;1599430;89;21080;-65
2022/03/27 01:22:10;;;;;;;10.40;9.13;;;;;;;14.36;32.28;101559.54;1602117;89;21117;-65
2022/03/27 01:24:37;;;;;;;17.20;9.23;;;;;;;14.38;32.24;101569.09;1602818;89;21127;-64
2022/03/27 01:27:05;;;;;;;11.88;9.43;;;;;;;14.40;32.22;101573.84;1595064;89;21453;-65
2022/03/27 01:29:32;;;;;;;13.32;9.33;;;;;;;14.40;32.21;101569.91;1606400;87;21602;-64
2022/03/27 01:31:59;;;;;;;12.80;8.90;;;;;;;14.42;32.17;101565.49;1598025;89;21556;-64
2022/03/27 01:34:26;;;;;;;11.08;9.15;;;;;;;14.44;32.12;101570.24;1599600;89;21132;-65
2022/03/27 01:36:54;;;;;;;12.88;8.83;;;;;;;14.46;32.05;101561.03;1601366;89;21127;-65
2022/03/27 01:39:20;;;;;;;13.32;9.38;;;;;;;14.46;32.08;101567.13;1598465;89;21623;-64
2022/03/27 01:41:49;;;;;;;11.90;8.85;;;;;;;14.47;32.08;101559.67;1625969;87;21064;-64
2022/03/27 01:44:17;;;;;;;11.78;9.15;;;;;;;14.48;32.14;101565.34;1635616;87;21071;-64
2022/03/27 01:46:44;;;;;;;12.88;9.40;;;;;;;14.50;32.15;101560.05;1635847;87;21073;-65
2022/03/27 01:49:13;;;;;;;13.75;9.78;;;;;;;14.50;32.11;101558.30;1629430;87;21033;-64
2022/03/27 01:51:40;;;;;;;13.55;9.35;;;;;;;14.51;32.08;101560.01;1625553;87;21041;-64
2022/03/27 01:54:07;;;;;;;11.10;9.28;;;;;;;14.51;32.10;101556.52;1631982;87;21121;-64
2022/03/27 01:56:37;;;;;;;12.82;9.43;;;;;;;14.51;32.17;101554.77;1632471;87;21041;-65
2022/03/27 01:59:05;;;;;;;13.15;9.10;;;;;;;14.51;32.16;101560.01;1632419;87;21069;-64
2022/03/27 02:01:34;;;;;;;12.70;9.23;;;;;;;14.51;32.13;101556.08;1635446;87;21810;-65
2022/03/27 02:04:03;;;;;;;12.03;9.20;;;;;;;14.52;32.14;101556.95;1631338;87;21616;-64
2022/03/27 02:06:32;;;;;;;12.98;9.90;;;;;;;14.52;32.17;101554.33;1631922;87;21108;-64
2022/03/27 02:09:01;;;;;;;12.43;8.63;;;;;;;14.52;32.25;101556.50;1628526;87;21053;-64
2022/03/27 02:11:29;;;;;;;12.45;9.75;;;;;;;14.52;32.25;101564.36;1634305;87;21033;-65
2022/03/27 02:13:56;;;;;;;14.98;9.58;;;;;;;14.52;32.35;101569.60;1631436;87;21532;-65
2022/03/27 02:16:23;;;;;;;13.35;9.45;;;;;;;14.54;32.39;101569.11;1629599;87;21554;-65
2022/03/27 02:18:51;;;;;;;13.05;9.30;;;;;;;14.55;32.49;101583.91;1629642;87;21021;-65
2022/03/27 02:21:18;;;;;;;12.07;8.80;;;;;;;14.55;32.61;101587.84;1629964;86;21045;-65
2022/03/27 02:23:44;;;;;;;13.38;9.63;;;;;;;14.54;32.56;101582.20;1708479;83;21058;-65
2022/03/27 02:26:12;;;;;;;12.50;8.98;;;;;;;14.54;32.56;101584.83;1718488;83;21019;-64
2022/03/27 02:28:40;;;;;;;13.40;10.10;;;;;;;14.53;32.63;101590.95;1720316;83;21008;-64
2022/03/27 02:31:08;;;;;;;12.93;9.28;;;;;;;14.56;32.72;101601.80;1716440;83;21518;-64
2022/03/27 02:33:36;;;;;;;11.38;9.00;;;;;;;14.56;32.79;101602.67;1710117;83;21055;-64
2022/03/27 02:36:08;;;;;;;13.80;8.90;;;;;;;14.55;32.75;101598.31;1717559;82;21074;-65
2022/03/27 02:38:35;;;;;;;13.50;9.35;;;;;;;14.53;32.70;101592.25;1715422;83;21110;-65
2022/03/27 02:41:03;;;;;;;12.25;8.53;;;;;;;14.52;32.71;101586.63;1719520;83;21055;-64
2022/03/27 02:43:31;;;;;;;16.50;9.20;;;;;;;14.48;32.85;101590.66;1707774;83;21110;-65
2022/03/27 02:46:00;;;;;;;10.75;8.50;;;;;;;14.49;32.89;101601.09;1720526;83;21058;-65
2022/03/27 02:48:27;;;;;;;13.50;8.83;;;;;;;14.49;33.03;101603.70;1720413;83;21070;-65
2022/03/27 02:50:54;;;;;;;12.98;9.40;;;;;;;14.51;33.14;101601.91;1724221;83;21036;-65
2022/03/27 02:53:21;;;;;;;11.43;8.38;;;;;;;14.52;33.19;101619.36;1718873;83;21045;-65
2022/03/27 02:55:48;;;;;;;13.72;9.13;;;;;;;14.52;33.21;101619.80;1707795;83;21098;-65
2022/03/27 02:58:15;;;;;;;11.63;8.53;;;;;;;14.51;33.29;101624.17;1718087;83;21120;-65
2022/03/27 03:00:43;;;;;;;12.18;8.60;;;;;;;14.51;33.34;101632.47;1718048;83;21039;-64
2022/03/27 03:03:13;;;;;;;18.30;9.45;;;;;;;14.49;33.36;101646.91;1720680;83;21007;-65
2022/03/27 03:05:41;;;;;;;19.75;9.68;;;;;;;14.49;33.40;101660.45;1720275;83;21602;-64
2022/03/27 03:08:11;;;;;;;14.40;10.43;;;;;;;14.48;33.42;101662.23;1723703;83;21043;-64
2022/03/27 03:10:40;;;;;;;13.60;10.37;;;;;;;14.47;33.72;101669.66;1717713;82;21035;-65
2022/03/27 03:13:08;;;;;;;11.65;9.80;;;;;;;14.47;34.42;101683.20;1717311;83;20999;-65
2022/03/27 03:15:42;;;;;;;12.88;9.80;;;;;;;14.48;36.03;101683.18;1717284;83;21767;-64
2022/03/27 03:18:11;;;;;;;12.53;9.38;;;;;;;14.47;37.92;101684.06;1717732;82;21574;-64
2022/03/27 03:20:39;;;;;;;12.50;10.10;;;;;;;14.47;39.15;101686.68;1717393;83;21054;-64
2022/03/27 03:23:08;;;;;;;17.77;11.57;;;;;;;14.45;39.93;101693.71;1719121;82;21046;-65
2022/03/27 03:25:35;;;;;;;15.78;10.08;;;;;;;14.41;41.18;101694.68;1720525;83;21102;-64
2022/03/27 03:28:03;;;;;;;11.20;8.95;;;;;;;14.36;41.84;101707.00;1716190;83;21055;-64
2022/03/27 03:30:31;;;;;;;17.82;9.08;;;;;;;14.28;42.70;101719.39;1720456;83;21574;-64
2022/03/27 03:32:59;;;;;;;15.15;9.15;;;;;;;14.22;43.18;101713.42;1719998;83;21064;-65
2022/03/27 03:35:26;;;;;;;9.58;7.42;;;;;;;14.15;43.80;101726.22;1717330;83;21059;-65
2022/03/27 03:37:54;;;;;;;10.35;7.35;;;;;;;14.08;44.15;101734.64;1708119;83;21084;-65
2022/03/27 03:40:21;;;;;;;9.85;6.45;;;;;;;14.03;44.31;101735.63;1695954;83;21083;-65
2022/03/27 03:42:49;;;;;;;7.33;6.33;;;;;;;13.99;44.19;101745.31;1708347;83;21074;-64
2022/03/27 03:45:16;;;;;;;9.15;6.60;;;;;;;13.97;44.25;101743.17;1707389;83;21043;-65
2022/03/27 03:47:43;;;;;;;14.95;6.45;;;;;;;13.96;43.94;101736.64;1706431;83;21539;-65
2022/03/27 03:50:10;;;;;;;16.45;5.90;;;;;;;13.95;42.60;101745.39;1704566;83;21028;-64
2022/03/27 03:52:37;;;;;;;9.83;4.92;;;;;;;13.95;41.68;101746.23;1704827;83;21114;-64
2022/03/27 03:55:06;;;;;;;14.53;5.20;;;;;;;13.96;41.26;101747.97;1704365;83;21520;-64
2022/03/27 03:57:33;;;;;;;15.80;4.62;;;;;;;13.94;39.69;101765.45;1704501;83;21063;-65
2022/03/27 04:00:01;;;;;;;11.15;4.42;;;;;;;13.94;38.64;101762.84;1704997;83;21064;-64
2022/03/27 04:02:31;;;;;;;15.20;4.08;;;;;;;13.94;38.12;101769.38;1693174;83;21020;-63
2022/03/27 04:05:01;;;;;;;12.40;3.50;;;;;;;13.90;36.28;101778.19;1707433;83;21008;-64
2022/03/27 04:07:27;;;;;;;12.95;4.62;;;;;;;13.88;35.89;101795.23;1706541;83;21583;-64
2022/03/27 04:09:54;;;;;;;7.05;3.50;;;;;;;13.86;34.89;101807.91;1704986;83;21088;-65
2022/03/27 04:12:22;;;;;;;10.43;4.12;;;;;;;13.82;34.78;101807.55;1709709;83;21079;-65
2022/03/27 04:14:49;;;;;;;11.30;4.12;;;;;;;13.79;35.14;101812.83;1702448;83;21027;-64
2022/03/27 04:17:17;;;;;;;12.93;4.75;;;;;;;13.76;35.64;101823.36;1708780;83;21009;-64
2022/03/27 04:19:44;;;;;;;19.48;5.55;;;;;;;13.71;36.09;101844.80;1706628;83;21044;-64
2022/03/27 04:22:11;;;;;;;12.75;4.90;;;;;;;13.65;36.37;101830.52;1704938;83;21035;-64
2022/03/27 04:24:38;;;;;;;12.25;4.90;;;;;;;13.60;37.19;101837.61;1704042;83;21079;-64
2022/03/27 04:27:06;;;;;;;13.32;5.40;;;;;;;13.54;37.83;101839.85;1704564;83;21039;-64
2022/03/27 04:29:32;;;;;;;9.85;5.10;;;;;;;13.51;38.38;101841.67;1704291;83;21027;-64
2022/03/27 04:31:59;;;;;;;8.53;5.08;;;;;;;13.46;38.80;101853.94;1705204;83;21039;-64
2022/03/27 04:34:26;;;;;;;9.20;5.25;;;;;;;13.42;38.97;101835.27;1707373;83;21079;-64
2022/03/27 04:36:53;;;;;;;9.58;6.12;;;;;;;13.38;39.12;101849.28;1709530;83;21082;-65
2022/03/27 04:39:22;;;;;;;9.50;4.95;;;;;;;13.35;39.16;101838.89;1717997;83;21088;-64
2022/03/27 04:41:49;;;;;;;8.28;5.25;;;;;;;13.30;38.60;101848.54;1718507;83;21530;-64
2022/03/27 04:44:16;;;;;;;13.43;5.08;;;;;;;13.29;37.89;101840.30;1719519;83;21022;-63
2022/03/27 04:46:45;;;;;;;10.15;5.40;;;;;;;13.28;37.66;101843.78;1714877;83;22286;-64
2022/03/27 04:49:13;;;;;;;7.45;4.87;;;;;;;13.28;37.87;101862.95;1722823;83;21011;-64
2022/03/27 04:51:42;;;;;;;7.47;4.70;;;;;;;13.29;38.19;101867.73;1719346;83;21570;-63
2022/03/27 04:54:08;;;;;;;8.08;5.05;;;;;;;13.26;37.49;101872.56;1709198;82;21055;-64
2022/03/27 04:56:37;;;;;;;8.65;4.90;;;;;;;13.24;37.49;101872.16;1719005;83;21086;-64
2022/03/27 04:59:04;;;;;;;10.00;5.00;;;;;;;13.21;37.32;101887.44;1720314;83;21059;-65
2022/03/27 05:01:31;;;;;;;11.50;4.87;;;;;;;13.20;37.75;101877.02;1720406;83;21534;-64
2022/03/27 05:03:59;;;;;;;11.20;5.15;;;;;;;13.19;38.07;101900.12;1717902;83;21094;-64
2022/03/27 05:06:29;;;;;;;8.58;4.75;;;;;;;13.17;38.05;101925.42;1718323;83;21530;-63
2022/03/27 05:09:00;;;;;;;8.10;4.95;;;;;;;13.16;38.33;101941.97;1720353;83;21071;-63
2022/03/27 05:11:30;;;;;;;9.05;4.95;;;;;;;13.11;38.76;101945.11;1718272;83;21032;-63
2022/03/27 05:13:57;;;;;;;8.43;3.37;;;;;;;13.08;38.44;101932.06;1717674;82;21507;-64
2022/03/27 05:16:24;;;;;;;23.30;5.30;;;;;;;13.02;37.10;101941.66;1717522;83;21099;-64
2022/03/27 05:18:51;;;;;;;26.90;4.75;;;;;;;12.95;36.76;101954.41;1713824;83;21074;-63
2022/03/27 05:21:18;;;;;;;53.13;5.80;;;;;;;12.85;34.75;101947.56;1720514;83;21087;-64
2022/03/27 05:23:46;;;;;;;14.83;3.05;;;;;;;12.78;33.76;101969.41;1720422;83;21007;-63
2022/03/27 05:26:13;;;;;;;5.50;2.90;;;;;;;12.74;33.59;101954.66;1718793;83;21054;-64
2022/03/27 05:28:40;;;;;;;8.85;3.62;;;;;;;12.71;33.71;101962.54;1718540;83;21047;-64
2022/03/27 05:31:09;;;;;;;6.17;2.65;;;;;;;12.70;34.74;101960.80;1719500;83;21507;-64
2022/03/27 05:33:37;;;;;;;9.58;3.35;;;;;;;12.66;34.73;101970.85;1715702;83;21091;-64
2022/03/27 05:36:08;;;;;;;8.00;3.10;;;;;;;12.60;34.26;101978.75;1730354;83;21070;-64
2022/03/27 05:38:38;;;;;;;21.42;3.85;;;;;;;12.56;33.56;101974.88;1716043;83;21099;-65
2022/03/27 05:41:09;;;;;;;10.63;3.27;;;;;;;12.51;32.51;101985.36;1706825;83;21554;-63
2022/03/27 05:43:37;;;;;;;12.47;4.33;;;;;;;12.47;32.08;101973.22;1703087;83;21040;-63
2022/03/27 05:46:04;;;;;;;7.42;2.60;;;;;;;12.45;31.21;101976.30;1709853;83;21040;-64
2022/03/27 05:48:31;;;;;;;11.35;2.58;;;;;;;12.45;32.79;101990.65;1706084;83;21090;-63
2022/03/27 05:50:58;;;;;;;9.03;2.65;;;;;;;12.40;31.87;101974.19;1705124;83;21087;-64
2022/03/27 05:53:26;;;;;;;10.55;2.58;;;;;;;12.38;32.80;101988.12;1704022;83;21087;-64
2022/03/27 05:55:53;;;;;;;6.60;2.12;;;;;;;12.32;32.48;101990.36;1704699;83;21054;-64
2022/03/27 05:58:21;;;;;;;8.88;2.67;;;;;;;12.32;33.60;101990.36;1704823;83;21543;-64
2022/03/27 06:00:49;;;;;;;7.80;2.10;;;;;;;12.39;33.43;102002.45;1705310;83;21032;-65
2022/03/27 06:03:17;;;;;;;7.10;1.98;;;;;;;12.49;32.40;102014.54;1703326;83;21044;-65
2022/03/27 06:05:43;;;;;;;7.83;3.25;;;;;;;12.59;31.50;102013.56;1696919;83;21067;-64
2022/03/27 06:08:10;;;;;;;7.45;1.87;;;;;;;12.72;31.80;102015.61;1705104;83;21098;-64
2022/03/27 06:10:39;;;;;;;6.20;2.30;;;;;;;12.88;31.01;102010.67;1707281;83;21583;-64
2022/03/27 06:13:06;;;;;;;4.50;1.82;;;;;;;13.10;30.66;102025.67;1707762;83;21040;-65
2022/03/27 06:15:35;;;;;;;8.50;2.83;;;;;;;13.29;30.50;102027.19;1706644;83;21111;-66
2022/03/27 06:18:03;;;;;;;4.90;1.80;;;;;;;13.45;30.88;102024.36;1704310;83;21547;-66
2022/03/27 06:20:31;;;;;;;9.30;1.70;;;;;;;13.52;30.11;102022.50;1703558;83;21086;-65
2022/03/27 06:23:01;;;;;;;8.65;2.00;;;;;;;13.57;30.78;102039.87;1706820;83;20997;-66
2022/03/27 06:25:30;;;;;;;11.75;2.10;;;;;;;13.69;31.32;102042.32;1707572;83;21031;-65
2022/03/27 06:27:57;;;;;;;9.53;2.10;;;;;;;13.86;30.52;102055.16;1707304;83;21020;-66
2022/03/27 06:30:28;;;;;;;11.73;2.10;;;;;;;13.98;29.89;102049.74;1705604;83;21507;-66
2022/03/27 06:32:55;;;;;;;;;;;;;;;13.97;29.08;102051.95;1706985;83;21535;-65
2022/03/27 06:35:23;;;;;;;3.87;1.87;;;;;;;13.96;29.74;102069.83;1694321;83;20115;-66
2022/03/27 06:37:51;;;;;;;4.35;2.10;;;;;;;14.01;30.16;102070.64;1707385;83;21547;-65
2022/03/27 06:40:20;;;;;;;9.95;2.00;;;;;;;14.12;30.37;102071.33;1703511;83;21000;-66
2022/03/27 06:42:47;;;;;;;11.45;2.45;;;;;;;14.21;30.12;102071.20;1704439;83;21546;-66
2022/03/27 06:45:16;;;;;;;7.05;1.90;;;;;;;14.22;29.01;102080.77;1704483;83;21579;-65
2022/03/27 06:47:47;;;;;;;8.25;2.00;;;;;;;14.20;28.87;102061.59;1704695;83;21148;-66
2022/03/27 06:50:15;;;;;;;6.47;2.55;;;;;;;14.13;29.04;102057.36;1704627;83;21512;-65
2022/03/27 06:52:43;;;;;;;6.65;2.30;;;;;;;13.99;28.56;102074.16;1706965;83;20980;-65
2022/03/27 06:55:10;;;;;;;9.03;2.10;;;;;;;13.88;28.86;102076.94;1703503;83;21032;-65
2022/03/27 06:57:39;;;;;;;5.15;2.15;;;;;;;13.78;28.77;102093.22;1707620;83;21111;-65
2022/03/27 07:03:03;;;;;;;9.48;2.47;;;;;;;13.76;28.85;102112.42;1694705;83;21591;-65
2022/03/27 07:05:33;;;;;;;6.12;1.90;;;;;;;13.77;29.12;102113.70;1707592;83;21040;-65
2022/03/27 07:08:00;;;;;;;10.78;2.37;;;;;;;13.80;27.99;102110.19;1685611;84;21029;-65
2022/03/27 07:10:28;;;;;;;5.15;1.80;;;;;;;13.80;28.01;102116.73;1682881;84;21030;-65
2022/03/27 07:12:55;;;;;;;8.40;1.70;;;;;;;13.76;27.53;102130.74;1684307;84;21498;-65
2022/03/27 07:15:24;;;;;;;7.20;1.95;;;;;;;13.79;27.19;102139.84;1683209;84;21015;-65
2022/03/27 07:17:53;;;;;;;5.30;1.50;;;;;;;13.82;27.07;102123.69;1686009;84;21019;-65
2022/03/27 07:20:26;;;;;;;6.33;1.80;;;;;;;13.85;27.23;102110.98;1685619;84;20987;-65
2022/03/27 07:22:54;;;;;;;8.63;1.62;;;;;;;13.89;25.74;102123.12;1630784;87;21065;-65
2022/03/27 07:25:22;;;;;;;7.12;2.00;;;;;;;13.87;27.17;102110.52;1629056;87;21045;-65
2022/03/27 07:27:50;;;;;;;3.90;1.32;;;;;;;13.86;26.88;102110.11;1628912;87;21640;-65
2022/03/27 07:30:17;;;;;;;5.80;1.60;;;;;;;13.80;25.81;102129.81;1628847;87;21101;-65
2022/03/27 07:32:46;;;;;;;5.78;1.62;;;;;;;13.75;26.32;102136.41;1628923;87;21022;-65
2022/03/27 07:35:17;;;;;;;7.75;1.90;;;;;;;13.71;26.21;102135.16;1628717;87;21560;-65
2022/03/27 07:37:44;;;;;;;4.12;1.75;;;;;;;13.60;25.37;102144.44;1622009;87;21126;-65
2022/03/27 07:40:13;;;;;;;9.93;1.85;;;;;;;13.45;26.33;102154.22;1596147;89;21093;-66
2022/03/27 07:42:46;;;;;;;5.20;1.55;;;;;;;13.36;27.33;102147.34;1598328;89;21570;-65
2022/03/27 07:45:12;;;;;;;5.75;1.85;;;;;;;13.31;27.72;102145.67;1587071;88;21153;-66
2022/03/27 07:47:40;;;;;;;3.92;1.60;;;;;;;13.26;28.54;102157.91;1587378;88;21070;-65
2022/03/27 07:50:09;;;;;;;6.97;2.02;;;;;;;13.19;28.04;102154.95;1588118;88;21149;-66
2022/03/27 07:52:36;;;;;;;6.47;2.30;;;;;;;13.12;27.22;102154.58;1590032;88;21030;-65
2022/03/27 07:55:05;;;;;;;5.55;1.98;;;;;;;13.10;26.91;102168.10;1589830;88;21141;-66
2022/03/27 07:57:32;;;;;;;7.28;2.20;;;;;;;13.11;26.23;102162.01;1588362;88;21085;-65
2022/03/27 07:59:59;;;;;;;7.55;2.08;;;;;;;13.08;25.85;102163.33;1607230;87;21072;-66
2022/03/27 08:02:26;;;;;;;10.05;2.05;;;;;;;13.02;26.08;102172.91;1636537;87;21072;-65
2022/03/27 08:04:53;;;;;;;6.55;1.98;;;;;;;12.98;26.14;102165.98;1654137;85;21073;-65
2022/03/27 08:07:21;;;;;;;5.30;2.10;;;;;;;12.96;26.16;102170.36;1667221;85;21482;-64
2022/03/27 08:09:50;;;;;;;5.30;2.25;;;;;;;12.90;26.79;102167.80;1665452;85;21050;-64
2022/03/27 08:12:20;;;;;;;4.85;2.40;;;;;;;12.86;26.54;102172.63;1655830;85;21032;-64
2022/03/27 08:14:50;;;;;;;11.65;3.15;;;;;;;12.88;27.34;102164.34;1663082;85;21648;-64
2022/03/27 08:17:18;;;;;;;8.25;2.35;;;;;;;12.86;27.03;102170.02;1657146;85;21034;-64
2022/03/27 08:19:46;;;;;;;6.62;2.30;;;;;;;12.88;26.80;102178.70;1664615;85;21037;-64
2022/03/27 08:22:15;;;;;;;9.75;2.37;;;;;;;12.92;27.19;102184.33;1666064;85;21540;-64
2022/03/27 08:24:43;;;;;;;8.48;2.20;;;;;;;12.93;27.82;102176.94;1663197;85;21044;-65
2022/03/27 08:27:11;;;;;;;7.90;2.37;;;;;;;12.88;26.60;102185.23;1660048;85;21050;-64
2022/03/27 08:29:39;;;;;;;9.65;2.77;;;;;;;12.80;27.36;102192.27;1663828;85;21118;-64
2022/03/27 08:32:10;;;;;;;11.60;2.25;;;;;;;12.78;27.27;102194.03;1664474;85;21029;-64
2022/03/27 08:34:37;;;;;;;6.70;2.10;;;;;;;12.77;27.20;102189.70;1623249;88;21121;-64
2022/03/27 08:37:08;;;;;;;10.23;2.37;;;;;;;12.79;26.14;102202.74;1623013;88;21608;-64
2022/03/27 08:39:35;;;;;;;5.83;2.45;;;;;;;12.80;27.28;102197.50;1645237;87;21089;-64
2022/03/27 08:42:02;;;;;;;12.88;2.90;;;;;;;12.80;27.50;102197.50;1657936;86;21062;-64
2022/03/27 08:44:30;;;;;;;3.72;2.17;;;;;;;12.83;26.61;102189.66;1665097;86;21573;-65
2022/03/27 08:46:58;;;;;;;8.15;2.20;;;;;;;12.85;26.53;102202.27;1665214;86;21030;-64
2022/03/27 08:49:42;;;;;;;8.35;2.52;;;;;;;12.88;26.22;102187.84;1665050;86;21117;-64
2022/03/27 08:52:40;;;;;;;12.47;2.87;;;;;;;12.92;26.74;102186.94;1589244;90;21105;-64
2022/03/27 08:55:11;;;;;;;5.85;2.25;;;;;;;12.99;27.30;102179.49;1589425;90;21077;-64
2022/03/27 08:57:55;;;;;;;17.87;2.62;;;;;;;13.08;27.42;102185.55;1565629;92;21151;-64
2022/03/27 09:00:29;;;;;;;10.82;2.80;;;;;;;13.12;27.06;102186.81;1564876;92;21658;-63
2022/03/27 09:02:58;;;;;;;6.55;1.55;;;;;;;13.17;26.86;102184.16;1563489;91;21083;-63
2022/03/27 09:05:26;;;;;;;7.87;1.98;;;;;;;13.16;26.70;102186.33;1566051;90;21062;-63
2022/03/27 09:07:55;;;;;;;7.65;2.05;;;;;;;13.08;26.61;102176.80;1565540;92;21128;-64
2022/03/27 09:10:24;;;;;;;10.70;1.95;;;;;;;13.04;26.72;102186.86;1565856;92;21147;-64
2022/03/27 09:12:52;;;;;;;9.95;2.27;;;;;;;13.02;26.93;102175.52;1565609;92;21059;-63
2022/03/27 09:15:20;;;;;;;11.28;2.50;;;;;;;13.02;27.53;102187.75;1565479;92;21095;-63
2022/03/27 09:18:08;;;;;;;9.45;1.67;;;;;;;13.03;27.27;102185.11;1561110;90;21137;-64
2022/03/27 09:20:53;;;;;;;9.95;2.08;;;;;;;13.10;26.61;102185.09;1565636;90;21106;-64
2022/03/27 09:23:28;;;;;;;11.83;1.92;;;;;;;13.15;26.64;102188.08;1564035;92;21055;-63
2022/03/27 09:26:00;;;;;;;11.45;2.83;;;;;;;13.14;27.40;102177.64;1563634;92;21143;-64
2022/03/27 09:28:40;;;;;;;14.18;2.30;;;;;;;13.17;27.17;102171.94;1466944;98;21151;-64
2022/03/27 09:31:20;;;;;;;14.50;2.08;;;;;;;13.16;26.48;102179.80;1445852;96;21184;-66
2022/03/27 09:34:00;;;;;;;9.98;2.50;;;;;;;13.11;26.41;102188.14;1477666;96;21119;-65
2022/03/27 09:36:39;;;;;;;11.38;2.33;;;;;;;13.10;27.97;102192.50;1473767;96;21277;-63
2022/03/27 09:39:17;;;;;;;11.08;2.70;;;;;;;13.12;27.27;102210.77;1473961;96;21136;-63
2022/03/27 09:41:54;;;;;;;8.20;1.90;;;;;;;13.13;27.20;102199.45;1479114;97;21671;-63
2022/03/27 09:44:32;;;;;;;10.10;2.50;;;;;;;13.11;26.85;102202.52;1479114;97;21084;-64
2022/03/27 09:47:07;;;;;;;15.85;2.50;;;;;;;13.08;26.74;102212.09;1473848;97;21068;-64
2022/03/27 09:49:44;;;;;;;14.28;2.35;;;;;;;13.12;27.03;102217.30;1488699;95;21066;-64
2022/03/27 09:52:17;;;;;;;15.93;1.80;;;;;;;13.17;26.74;102216.83;1492089;95;21523;-64
2022/03/27 09:55:05;;;;;;;13.68;2.42;;;;;;;13.16;26.24;102219.00;1497018;93;21150;-63
2022/03/27 09:57:38;;;;;;;9.90;2.22;;;;;;;13.20;26.04;102225.94;1507523;95;21063;-63
2022/03/27 10:00:15;;;;;;;12.80;2.10;;;;;;;13.24;26.05;102209.34;1520786;93;21131;-64
2022/03/27 10:02:44;;;;;;;9.30;2.08;;;;;;;13.24;25.53;102209.34;1529694;93;21178;-63
2022/03/27 10:05:13;;;;;;;13.30;1.95;;;;;;;13.25;25.41;102217.16;1529544;93;21103;-64
2022/03/27 10:07:47;;;;;;;11.55;1.80;;;;;;;13.29;25.11;102198.41;1529623;93;21094;-63
2022/03/27 10:10:16;;;;;;;9.88;2.45;;;;;;;13.33;25.88;102197.50;1529647;93;21134;-64
2022/03/27 10:12:45;;;;;;;16.75;2.27;;;;;;;13.36;26.49;102203.98;1529917;92;21039;-64
2022/03/27 10:15:16;;;;;;;6.50;2.05;;;;;;;13.38;25.13;102195.25;1530036;92;21098;-64
2022/03/27 10:17:49;;;;;;;17.98;3.83;;;;;;;13.38;25.05;102187.84;1528902;93;21104;-64
2022/03/27 10:20:18;;;;;;;10.00;2.12;;;;;;;13.41;24.92;102194.36;1511488;94;21056;-64
2022/03/27 10:22:49;;;;;;;12.28;2.20;;;;;;;13.47;25.14;102198.22;1511717;94;21589;-64
2022/03/27 10:25:17;;;;;;;12.90;2.95;;;;;;;13.54;26.06;102207.27;1510801;94;21098;-64
2022/03/27 10:27:47;;;;;;;15.70;2.42;;;;;;;13.59;24.67;102204.61;1540373;90;21606;-64
2022/03/27 10:30:16;;;;;;;14.98;2.75;;;;;;;13.60;25.66;102205.06;1572894;90;21074;-64
2022/03/27 10:32:45;;;;;;;14.10;2.47;;;;;;;13.62;26.13;102199.37;1612604;87;21538;-64
2022/03/27 10:35:26;;;;;;;18.67;2.75;;;;;;;13.62;27.23;102207.21;1615394;88;21183;-64
2022/03/27 10:38:38;;;;;;;9.98;2.08;;;;;;;13.63;27.03;102203.70;1601378;89;21081;-64
2022/03/27 10:41:29;;;;;;;7.10;1.70;;;;;;;13.63;26.44;102205.88;1596841;89;21089;-64
2022/03/27 10:44:15;;;;;;;9.63;2.22;;;;;;;13.64;25.18;102215.91;1601860;89;21069;-64
2022/03/27 10:46:46;;;;;;;8.48;2.40;;;;;;;13.66;25.73;102210.22;1601275;88;21033;-64
2022/03/27 10:49:13;;;;;;;4.92;2.25;;;;;;;13.67;25.19;102208.01;1598370;89;21065;-64
2022/03/27 10:51:45;;;;;;;9.73;1.90;;;;;;;13.70;24.97;102214.53;1601786;89;21045;-64
2022/03/27 10:54:15;;;;;;;;;;;;;;;13.74;26.03;102221.45;1603684;89;21041;-64
2022/03/27 10:56:50;;;;;;;6.75;1.70;;;;;;;13.77;26.00;102220.09;1601805;89;20149;-63
2022/03/27 10:59:24;;;;;;;6.83;2.35;;;;;;;13.81;25.04;102212.63;1562206;91;21102;-64
2022/03/27 11:01:54;;;;;;;8.73;2.45;;;;;;;13.84;25.83;102225.26;1568902;91;21144;-64
2022/03/27 11:04:38;;;;;;;7.62;2.10;;;;;;;13.91;26.06;102221.26;1563985;91;21126;-64
2022/03/27 11:07:21;;;;;;;8.70;2.20;;;;;;;13.96;25.76;102220.74;1564131;91;21558;-64
2022/03/27 11:09:49;;;;;;;11.73;2.00;;;;;;;13.96;25.14;102216.38;1563825;91;21547;-64
2022/03/27 11:12:31;;;;;;;7.03;1.75;;;;;;;13.96;25.56;102217.69;1563989;91;21653;-64
2022/03/27 11:15:03;;;;;;;7.00;1.72;;;;;;;13.96;25.17;102230.77;1578541;88;21063;-64
2022/03/27 11:20:26;;;;;;;8.10;1.95;;;;;;;13.99;25.56;102239.91;1548665;92;21111;-65
2022/03/27 11:22:55;;;;;;;6.10;1.37;;;;;;;14.03;25.25;102232.88;1527538;93;21130;-64
2022/03/27 11:25:44;;;;;;;8.95;2.45;;;;;;;14.04;25.12;102227.62;1547803;92;21124;-65
2022/03/27 11:28:16;;;;;;;4.78;1.87;;;;;;;14.05;24.68;102241.14;1525926;93;21627;-65
2022/03/27 11:30:55;;;;;;;8.05;1.92;;;;;;;14.07;24.63;102229.34;1519799;94;21109;-64
2022/03/27 11:33:26;;;;;;;6.92;1.95;;;;;;;14.07;25.21;102218.43;1520814;94;21069;-64
2022/03/27 11:36:14;;;;;;;5.03;1.67;;;;;;;14.12;24.78;102232.74;1520356;94;21161;-63
2022/03/27 11:39:12;;;;;;;7.75;1.55;;;;;;;14.12;24.78;102232.74;1518133;92;21148;-63
2022/03/27 11:41:47;;;;;;;5.62;1.60;;;;;;;14.12;24.57;102238.85;1515238;94;21230;-63
2022/03/27 11:47:22;;;;;;;11.22;1.80;;;;;;;14.12;24.21;102249.33;1516489;94;21105;-64
2022/03/27 11:49:51;;;;;;;7.97;1.80;;;;;;;14.16;24.58;102244.47;1516603;94;21089;-64